Main page
METAR-TAF:

METAR-TAF

Airports :

Fuaʻamotu International Airport

Tongatapu, Tonga

latitude: 21-14S, longitude: 175-09W, elevation: 38 m

Current weather observation

The report was made 58 minutes ago, at 19:00 UTC
Wind 3 kt from the East/Southeast
Temperature 22°C
Humidity 78%
Pressure 1016 hPa
Visibility 10 km or more
Few clouds at a height of 1800 ft
Broken clouds at a height of 12000 ft

METAR: NFTF 231900Z 11003KT 9999 FEW018 BKN120 22/18 Q1016

Time: 08:58 (19:58 UTC)

Forecast

The report was made 2 hours and 59 minutes ago, at 16:59 UTC
Forecast valid from 23 at 18 UTC to 24 at 18 UTC
Wind 7 kt from the Southeast
Visibility 10 km or more
Scattered clouds at a height of 1800 ft
Broken clouds at a height of 10000 ft

TAF: NFTF 231659Z 2318/2418 13007KT 9999 SCT018 BKN100

Weather observations and forecasts of more than 4000 airports (METAR and TAF reports).

The available stations are represented by yellow and red dots on the map.

Hover mouse over dot to see the name of the station.

Then click to see weather observations and forecasts.

To change the map : click on the green buttons with a black cross to zoom in, on the green button with a dash to zoom out, or on the green arrows for adjacent maps.


METAR-TAF: